Time,TemperatureF,DewpointF,PressureIn,WindDirection,WindDirectionDegrees,WindSpeedMPH,WindSpeedGustMPH,Humidity,HourlyPrecipIn,Conditions,Clouds,dailyrainin,SoftwareType,DateUTC
2013-07-25 00:05:00,93.6,57.0,29.38,North,357,7.0,-999.0,29,-99.99,,,0.00,weatherlink.com 1.10,2013-07-25 07:05:00,
2013-07-25 00:20:00,92.9,55.0,29.38,North,357,3.0,-999.0,28,-99.99,,,0.00,weatherlink.com 1.10,2013-07-25 07:20:00,
2013-07-25 00:35:00,92.3,55.0,29.38,North,357,3.0,-999.0,28,-99.99,,,0.00,weatherlink.com 1.10,2013-07-25 07:35:00,
2013-07-25 00:50:00,91.6,54.0,29.39,North,357,3.0,-999.0,28,-99.99,,,0.00,weatherlink.com 1.10,2013-07-25 07:50:00,
2013-07-25 01:05:00,91.4,54.0,29.39,North,357,6.0,-999.0,28,-99.99,,,0.00,weatherlink.com 1.10,2013-07-25 08:05:00,
2013-07-25 01:20:00,91.8,53.0,29.38,North,357,3.0,-999.0,27,-99.99,,,0.00,weatherlink.com 1.10,2013-07-25 08:20:00,
2013-07-25 01:35:00,91.8,53.0,29.38,North,357,2.0,-999.0,27,-99.99,,,0.00,weatherlink.com 1.10,2013-07-25 08:35:00,
2013-07-25 01:50:00,92.3,54.0,29.38,North,357,3.0,-999.0,27,-99.99,,,0.00,weatherlink.com 1.10,2013-07-25 08:50:00,
2013-07-25 02:05:00,92.7,53.0,29.38,North,357,5.0,-999.0,26,-99.99,,,0.00,weatherlink.com 1.10,2013-07-25 09:05:00,
2013-07-25 02:20:00,93.2,56.0,29.38,North,357,0.0,-999.0,28,-99.99,,,0.00,weatherlink.com 1.10,2013-07-25 09:20:00,
2013-07-25 02:35:00,93.4,56.0,29.39,North,357,2.0,-999.0,28,-99.99,,,0.00,weatherlink.com 1.10,2013-07-25 09:35:00,
2013-07-25 02:50:00,93.2,56.0,29.39,North,357,0.0,-999.0,28,-99.99,,,0.00,weatherlink.com 1.10,2013-07-25 09:50:00,
2013-07-25 03:05:00,92.7,54.0,29.39,North,357,1.0,-999.0,27,-99.99,,,0.00,weatherlink.com 1.10,2013-07-25 10:05:00,
2013-07-25 03:20:00,92.5,55.0,29.39,North,357,3.0,-999.0,28,-99.99,,,0.00,weatherlink.com 1.10,2013-07-25 10:20:00,
2013-07-25 03:35:00,92.3,55.0,29.39,NW,309,1.0,-999.0,28,-99.99,,,0.00,weatherlink.com 1.10,2013-07-25 10:35:00,
2013-07-25 03:50:00,92.3,54.0,29.40,North,357,5.0,-999.0,27,-99.99,,,0.00,weatherlink.com 1.10,2013-07-25 10:50:00,
2013-07-25 04:05:00,92.1,54.0,29.40,North,357,0.0,-999.0,27,-99.99,,,0.00,weatherlink.com 1.10,2013-07-25 11:05:00,
2013-07-25 04:20:00,91.8,54.0,29.40,North,357,0.0,-999.0,28,-99.99,,,0.00,weatherlink.com 1.10,2013-07-25 11:20:00,
2013-07-25 04:35:00,91.4,57.0,29.41,North,357,0.0,-999.0,31,-99.99,,,0.00,weatherlink.com 1.10,2013-07-25 11:35:00,
2013-07-25 04:50:00,91.0,55.0,29.41,North,356,0.0,-999.0,29,-99.99,,,0.00,weatherlink.com 1.10,2013-07-25 11:50:00,
2013-07-25 05:05:00,90.7,55.0,29.41,NNW,339,0.0,-999.0,30,-99.99,,,0.00,weatherlink.com 1.10,2013-07-25 12:05:00,
2013-07-25 05:20:00,91.0,56.0,29.41,North,357,0.0,-999.0,31,-99.99,,,0.00,weatherlink.com 1.10,2013-07-25 12:20:00,
2013-07-25 05:35:00,90.3,58.0,29.42,North,357,1.0,-999.0,33,-99.99,,,0.00,weatherlink.com 1.10,2013-07-25 12:35:00,
2013-07-25 05:50:00,89.0,57.0,29.43,North,359,0.0,-999.0,34,-99.99,,,0.00,weatherlink.com 1.10,2013-07-25 12:50:00,
2013-07-25 06:05:00,88.2,57.0,29.43,North,359,0.0,-999.0,35,-99.99,,,0.00,weatherlink.com 1.10,2013-07-25 13:05:00,
2013-07-25 06:20:00,87.8,57.0,29.43,North,359,1.0,-999.0,35,-99.99,,,0.00,weatherlink.com 1.10,2013-07-25 13:20:00,
2013-07-25 06:35:00,88.0,56.0,29.44,North,356,0.0,-999.0,34,-99.99,,,0.00,weatherlink.com 1.10,2013-07-25 13:35:00,
2013-07-25 06:50:00,88.4,60.0,29.44,North,356,0.0,-999.0,38,-99.99,,,0.00,weatherlink.com 1.10,2013-07-25 13:50:00,
2013-07-25 07:05:00,88.6,61.0,29.45,North,357,0.0,-999.0,39,-99.99,,,0.01,weatherlink.com 1.10,2013-07-25 14:05:00,
2013-07-25 07:20:00,85.9,69.0,29.45,NW,318,0.0,-999.0,57,-99.99,,,0.03,weatherlink.com 1.10,2013-07-25 14:20:00,
2013-07-25 07:36:00,83.6,69.0,29.47,North,357,0.0,-999.0,62,-99.99,,,0.04,weatherlink.com 1.10,2013-07-25 14:36:00,
2013-07-25 07:51:00,81.6,71.0,29.48,North,357,5.0,-999.0,69,-99.99,,,0.07,weatherlink.com 1.10,2013-07-25 14:51:00,
2013-07-25 08:06:00,80.9,72.0,29.48,North,357,0.0,-999.0,75,-99.99,,,0.07,weatherlink.com 1.10,2013-07-25 15:06:00,
2013-07-25 08:21:00,80.9,72.0,29.50,North,356,6.0,-999.0,73,-99.99,,,0.10,weatherlink.com 1.10,2013-07-25 15:21:00,
2013-07-25 08:36:00,79.8,71.0,29.49,ENE,62,0.0,-999.0,75,-99.99,,,0.11,weatherlink.com 1.10,2013-07-25 15:36:00,
2013-07-25 08:51:00,79.4,73.0,29.50,North,354,0.0,-999.0,81,-99.99,,,0.19,weatherlink.com 1.10,2013-07-25 15:51:00,
2013-07-25 09:06:00,79.4,74.0,29.50,South,184,5.0,-999.0,83,-99.99,,,0.19,weatherlink.com 1.10,2013-07-25 16:06:00,
2013-07-25 09:21:00,80.7,74.0,29.51,North,356,0.0,-999.0,79,-99.99,,,0.19,weatherlink.com 1.10,2013-07-25 16:21:00,
2013-07-25 09:36:00,83.0,73.0,29.51,SSW,198,0.0,-999.0,72,-99.99,,,0.19,weatherlink.com 1.10,2013-07-25 16:36:00,
2013-07-25 09:51:00,86.3,69.0,29.52,South,169,0.0,-999.0,56,-99.99,,,0.19,weatherlink.com 1.10,2013-07-25 16:51:00,
2013-07-25 10:06:00,88.0,69.0,29.53,NNW,346,0.0,-999.0,54,-99.99,,,0.19,weatherlink.com 1.10,2013-07-25 17:06:00,
2013-07-25 10:21:00,88.6,69.0,29.54,NNW,342,1.0,-999.0,53,-99.99,,,0.19,weatherlink.com 1.10,2013-07-25 17:21:00,
2013-07-25 10:36:00,89.7,69.0,29.54,North,354,3.0,-999.0,51,-99.99,,,0.19,weatherlink.com 1.10,2013-07-25 17:36:00,
2013-07-25 10:51:00,88.6,70.0,29.54,NNW,342,1.0,-999.0,54,-99.99,,,0.19,weatherlink.com 1.10,2013-07-25 17:51:00,
2013-07-25 11:21:00,86.3,72.0,29.54,North,357,2.0,-999.0,62,-99.99,,,0.19,weatherlink.com 1.10,2013-07-25 18:21:00,
2013-07-25 12:06:00,84.3,74.0,29.51,North,356,0.0,-999.0,72,-99.99,,,0.21,weatherlink.com 1.10,2013-07-25 19:06:00,
2013-07-25 12:21:00,84.7,73.0,29.51,North,356,0.0,-999.0,68,-99.99,,,0.21,weatherlink.com 1.10,2013-07-25 19:21:00,
2013-07-25 12:51:00,90.7,68.0,29.51,North,357,1.0,-999.0,47,-99.99,,,0.21,weatherlink.com 1.10,2013-07-25 19:51:00,
2013-07-25 13:06:00,91.4,67.0,29.51,North,357,0.0,-999.0,45,-99.99,,,0.21,weatherlink.com 1.10,2013-07-25 20:06:00,
2013-07-25 13:21:00,92.1,67.0,29.51,North,357,2.0,-999.0,43,-99.99,,,0.21,weatherlink.com 1.10,2013-07-25 20:21:00,
2013-07-25 13:36:00,92.7,66.0,29.50,North,354,0.0,-999.0,42,-99.99,,,0.21,weatherlink.com 1.10,2013-07-25 20:36:00,
2013-07-25 13:51:00,93.2,73.0,29.50,SW,226,0.0,-999.0,52,-99.99,,,0.21,weatherlink.com 1.10,2013-07-25 20:51:00,
2013-07-25 14:06:00,93.2,73.0,29.50,South,184,0.0,-999.0,52,-99.99,,,0.21,weatherlink.com 1.10,2013-07-25 21:06:00,
2013-07-25 14:21:00,95.6,71.0,29.49,North,356,0.0,-999.0,45,-99.99,,,0.21,weatherlink.com 1.10,2013-07-25 21:21:00,
2013-07-25 14:36:00,97.8,64.0,29.48,North,356,0.0,-999.0,33,-99.99,,,0.21,weatherlink.com 1.10,2013-07-25 21:36:00,
2013-07-25 14:51:00,100.2,65.0,29.48,North,357,0.0,-999.0,31,-99.99,,,0.21,weatherlink.com 1.10,2013-07-25 21:51:00,
2013-07-25 15:06:00,101.2,65.0,29.48,North,357,3.0,-999.0,30,-99.99,,,0.21,weatherlink.com 1.10,2013-07-25 22:06:00,
2013-07-25 15:21:00,102.0,62.0,29.47,North,357,7.0,-999.0,27,-99.99,,,0.21,weatherlink.com 1.10,2013-07-25 22:21:00,
2013-07-25 15:36:00,102.0,63.0,29.46,North,357,1.0,-999.0,28,-99.99,,,0.21,weatherlink.com 1.10,2013-07-25 22:36:00,
2013-07-25 15:51:00,102.5,64.0,29.46,North,357,0.0,-999.0,28,-99.99,,,0.21,weatherlink.com 1.10,2013-07-25 22:51:00,
2013-07-25 16:06:00,103.3,62.0,29.46,North,356,4.0,-999.0,26,-99.99,,,0.21,weatherlink.com 1.10,2013-07-25 23:06:00,
2013-07-25 16:21:00,103.1,63.0,29.45,NW,326,0.0,-999.0,27,-99.99,,,0.21,weatherlink.com 1.10,2013-07-25 23:21:00,
2013-07-25 16:36:00,105.1,64.0,29.45,North,356,0.0,-999.0,26,-99.99,,,0.21,weatherlink.com 1.10,2013-07-25 23:36:00,
2013-07-25 16:51:00,104.1,66.0,29.45,NNW,344,1.0,-999.0,29,-99.99,,,0.21,weatherlink.com 1.10,2013-07-25 23:51:00,
2013-07-25 17:06:00,101.0,67.0,29.45,North,354,3.0,-999.0,33,-99.99,,,0.21,weatherlink.com 1.10,2013-07-26 00:06:00,
2013-07-25 17:21:00,101.5,67.0,29.44,North,357,8.0,-999.0,32,-99.99,,,0.21,weatherlink.com 1.10,2013-07-26 00:21:00,
2013-07-25 17:36:00,102.0,67.0,29.45,North,357,1.0,-999.0,32,-99.99,,,0.21,weatherlink.com 1.10,2013-07-26 00:36:00,
2013-07-25 17:51:00,99.4,69.0,29.44,North,357,6.0,-999.0,37,-99.99,,,0.21,weatherlink.com 1.10,2013-07-26 00:51:00,
2013-07-25 18:06:00,97.8,69.0,29.45,North,357,3.0,-999.0,39,-99.99,,,0.21,weatherlink.com 1.10,2013-07-26 01:06:00,
2013-07-25 18:21:00,96.6,68.0,29.45,North,357,3.0,-999.0,39,-99.99,,,0.21,weatherlink.com 1.10,2013-07-26 01:21:00,
2013-07-25 18:36:00,96.3,69.0,29.45,North,357,1.0,-999.0,41,-99.99,,,0.21,weatherlink.com 1.10,2013-07-26 01:36:00,
2013-07-25 18:51:00,95.9,68.0,29.46,North,349,0.0,-999.0,40,-99.99,,,0.21,weatherlink.com 1.10,2013-07-26 01:51:00,
2013-07-25 19:06:00,95.6,69.0,29.46,North,349,0.0,-999.0,42,-99.99,,,0.21,weatherlink.com 1.10,2013-07-26 02:06:00,
2013-07-25 19:21:00,95.4,70.0,29.47,North,349,0.0,-999.0,44,-99.99,,,0.21,weatherlink.com 1.10,2013-07-26 02:21:00,
2013-07-25 19:36:00,95.1,69.0,29.47,North,349,0.0,-999.0,42,-99.99,,,0.21,weatherlink.com 1.10,2013-07-26 02:36:00,
2013-07-25 19:51:00,94.9,68.0,29.48,North,349,0.0,-999.0,42,-99.99,,,0.21,weatherlink.com 1.10,2013-07-26 02:51:00,
2013-07-25 20:06:00,94.3,67.0,29.48,North,349,0.0,-999.0,40,-99.99,,,0.21,weatherlink.com 1.10,2013-07-26 03:06:00,
2013-07-25 20:21:00,94.0,68.0,29.48,North,349,0.0,-999.0,43,-99.99,,,0.21,weatherlink.com 1.10,2013-07-26 03:21:00,
2013-07-25 20:36:00,94.0,62.0,29.48,North,354,2.0,-999.0,35,-99.99,,,0.21,weatherlink.com 1.10,2013-07-26 03:36:00,
2013-07-25 20:51:00,94.9,62.0,29.48,NNW,339,0.0,-999.0,34,-99.99,,,0.21,weatherlink.com 1.10,2013-07-26 03:51:00,
2013-07-25 21:06:00,94.9,63.0,29.49,NNW,335,0.0,-999.0,35,-99.99,,,0.21,weatherlink.com 1.10,2013-07-26 04:06:00,
2013-07-25 21:21:00,94.7,62.0,29.49,WNW,298,0.0,-999.0,34,-99.99,,,0.21,weatherlink.com 1.10,2013-07-26 04:21:00,
2013-07-25 21:36:00,94.5,64.0,29.50,WNW,289,0.0,-999.0,37,-99.99,,,0.21,weatherlink.com 1.10,2013-07-26 04:36:00,
2013-07-25 21:51:00,94.0,64.0,29.51,North,357,1.0,-999.0,37,-99.99,,,0.21,weatherlink.com 1.10,2013-07-26 04:51:00,
2013-07-25 22:06:00,93.6,64.0,29.51,North,357,2.0,-999.0,37,-99.99,,,0.21,weatherlink.com 1.10,2013-07-26 05:06:00,
2013-07-25 22:21:00,92.9,64.0,29.50,NW,319,0.0,-999.0,39,-99.99,,,0.21,weatherlink.com 1.10,2013-07-26 05:21:00,
2013-07-25 22:36:00,92.3,65.0,29.50,North,357,0.0,-999.0,41,-99.99,,,0.21,weatherlink.com 1.10,2013-07-26 05:36:00,
2013-07-25 22:51:00,91.6,64.0,29.50,NNW,332,0.0,-999.0,40,-99.99,,,0.21,weatherlink.com 1.10,2013-07-26 05:51:00,
2013-07-25 23:06:00,91.6,63.0,29.49,NW,308,0.0,-999.0,39,-99.99,,,0.21,weatherlink.com 1.10,2013-07-26 06:06:00,
2013-07-25 23:21:00,91.8,63.0,29.49,North,354,0.0,-999.0,39,-99.99,,,0.21,weatherlink.com 1.10,2013-07-26 06:21:00,
2013-07-25 23:37:00,91.4,64.0,29.50,North,357,2.0,-999.0,40,-99.99,,,0.21,weatherlink.com 1.10,2013-07-26 06:37:00,
2013-07-25 23:51:00,91.2,64.0,29.49,North,349,1.0,-999.0,40,-99.99,,,0.21,weatherlink.com 1.10,2013-07-26 06:51:00,